Airfield :
LOGIN :

Register | Disclaimer

   EN    FR    IT 

 










Legend :    VFR   Marginal VFR   IFR   Intensive IFR   Very Intensive IFR
Visi :
Ceiling :
>= 8 km
>= 3000ft
5 to 8 km
1000 to 3000 ft
1500m to 5 km
500 to 1000 ft
800 to 1500m
200 to 500 ft
< 800m
< 200 ft
Symbols :   Thunderstorms  Fog  Heavy snow  Heavy precipitations  Wind > 20 kt
SIGMETs :     Misc.  Thunderstorms  Icing  Turbulence  Mountain Waves  Volcanic Ashes






- Airport Elevation : 55 ft
- IATA code : DSA


EGCN - Robin Hood Doncaster Sheffield

CURRENT METAR :
  • 100920Z 17019KT 9999 -RA FEW015 SCT035 06/05 Q1010

EXPIRED METARs :
  • 100850Z 17015KT 9000 -RA FEW015 SCT020 BKN046 06/05 Q1011
  • 100820Z 17013KT 130V200 8000 -RA FEW019 06/04 Q1011
  • 100750Z 17014KT 9999 FEW018 06/04 Q1012
  • 100720Z 15006KT 110V190 9999 SCT017 05/03 Q1013

TAF TAF EGCN
Valid from the 10 at 06:00 until the 11 at 06:00 UTC


100459Z 1006/1106 16008KT CAVOK
PROB40
TEMPO 1006/1008 19015G25KT
BECMG 1008/1011 19018G30KT FEW014 BKN020
TEMPO 1009/1017 19026G40KT 6000 RA BKN012
BECMG 1016/1018 26015G25KT
PROB30
TEMPO 1016/1018 4000 +RA BKN008
PROB40
TEMPO 1018/1022 8000 RA
BECMG 1022/1102 25008KT



MET'MAP, your aeronautical weather chart ! - Copyright ORBIFLY December 2007 - Disclaimer

ORBIFLY MET'MAP TEAM :

Programming & Development : Alexandra Zaïnal
Concept & original design : Baudouin d'Aumeries
Assistance for programming : Marc-Olivier Méhu
Technical & hardware support : Manuel Goepfert

Contact : metmap@orbifly.com




SOURCES & CREDITS :

   NOAA